sensor_id;sensor_type;location;lat;lon;timestamp;P1;durP1;ratioP1;P2;durP2;ratioP2
5696;SDS011;2873;50.966;7.210;2023-04-16T00:00:47;19.55;;;10.00;;
5696;SDS011;2873;50.966;7.210;2023-04-16T00:03:13;18.50;;;11.37;;
5696;SDS011;2873;50.966;7.210;2023-04-16T00:05:39;21.60;;;11.65;;
5696;SDS011;2873;50.966;7.210;2023-04-16T00:08:05;17.97;;;11.43;;
5696;SDS011;2873;50.966;7.210;2023-04-16T00:10:31;22.00;;;11.20;;
5696;SDS011;2873;50.966;7.210;2023-04-16T00:12:58;21.52;;;12.63;;
5696;SDS011;2873;50.966;7.210;2023-04-16T00:15:23;20.20;;;11.90;;
5696;SDS011;2873;50.966;7.210;2023-04-16T00:17:49;21.65;;;12.57;;
5696;SDS011;2873;50.966;7.210;2023-04-16T00:20:15;21.00;;;12.20;;
5696;SDS011;2873;50.966;7.210;2023-04-16T00:22:40;21.42;;;12.52;;
5696;SDS011;2873;50.966;7.210;2023-04-16T00:25:06;22.48;;;12.18;;
5696;SDS011;2873;50.966;7.210;2023-04-16T00:27:32;25.73;;;13.80;;
5696;SDS011;2873;50.966;7.210;2023-04-16T00:29:58;27.05;;;14.15;;
5696;SDS011;2873;50.966;7.210;2023-04-16T00:32:23;25.73;;;14.43;;
5696;SDS011;2873;50.966;7.210;2023-04-16T00:34:49;27.27;;;14.30;;
5696;SDS011;2873;50.966;7.210;2023-04-16T00:37:15;23.83;;;14.73;;
5696;SDS011;2873;50.966;7.210;2023-04-16T00:39:40;26.60;;;15.77;;
5696;SDS011;2873;50.966;7.210;2023-04-16T00:42:06;36.42;;;18.98;;
5696;SDS011;2873;50.966;7.210;2023-04-16T00:44:32;47.22;;;21.27;;
5696;SDS011;2873;50.966;7.210;2023-04-16T00:47:00;39.20;;;21.13;;
5696;SDS011;2873;50.966;7.210;2023-04-16T00:49:27;43.00;;;23.45;;
5696;SDS011;2873;50.966;7.210;2023-04-16T00:51:53;47.05;;;23.85;;
5696;SDS011;2873;50.966;7.210;2023-04-16T00:54:19;48.97;;;25.15;;
5696;SDS011;2873;50.966;7.210;2023-04-16T00:56:45;49.78;;;25.73;;
5696;SDS011;2873;50.966;7.210;2023-04-16T00:59:11;51.97;;;26.20;;
5696;SDS011;2873;50.966;7.210;2023-04-16T01:01:37;52.75;;;26.25;;
5696;SDS011;2873;50.966;7.210;2023-04-16T01:04:02;53.10;;;26.43;;
5696;SDS011;2873;50.966;7.210;2023-04-16T01:06:28;53.80;;;27.33;;
5696;SDS011;2873;50.966;7.210;2023-04-16T01:08:54;55.00;;;27.90;;
5696;SDS011;2873;50.966;7.210;2023-04-16T01:11:20;62.70;;;26.50;;
5696;SDS011;2873;50.966;7.210;2023-04-16T01:13:45;52.85;;;26.55;;
5696;SDS011;2873;50.966;7.210;2023-04-16T01:16:11;56.73;;;26.90;;
5696;SDS011;2873;50.966;7.210;2023-04-16T01:18:37;48.63;;;25.83;;
5696;SDS011;2873;50.966;7.210;2023-04-16T01:21:03;56.25;;;25.75;;
5696;SDS011;2873;50.966;7.210;2023-04-16T01:23:29;58.72;;;26.50;;
5696;SDS011;2873;50.966;7.210;2023-04-16T01:25:55;56.17;;;26.63;;
5696;SDS011;2873;50.966;7.210;2023-04-16T01:28:20;54.33;;;26.17;;
5696;SDS011;2873;50.966;7.210;2023-04-16T01:30:47;48.15;;;26.58;;
5696;SDS011;2873;50.966;7.210;2023-04-16T01:33:12;49.75;;;25.95;;
5696;SDS011;2873;50.966;7.210;2023-04-16T01:35:39;45.58;;;23.33;;
5696;SDS011;2873;50.966;7.210;2023-04-16T01:38:06;42.20;;;22.50;;
5696;SDS011;2873;50.966;7.210;2023-04-16T01:40:32;38.30;;;21.60;;
5696;SDS011;2873;50.966;7.210;2023-04-16T01:43:02;38.33;;;20.20;;
5696;SDS011;2873;50.966;7.210;2023-04-16T01:45:28;41.10;;;21.85;;
5696;SDS011;2873;50.966;7.210;2023-04-16T01:47:55;37.60;;;21.00;;
5696;SDS011;2873;50.966;7.210;2023-04-16T01:50:21;42.35;;;20.58;;
5696;SDS011;2873;50.966;7.210;2023-04-16T01:52:47;35.70;;;20.00;;
5696;SDS011;2873;50.966;7.210;2023-04-16T01:55:12;43.15;;;21.17;;
5696;SDS011;2873;50.966;7.210;2023-04-16T01:57:38;39.07;;;20.80;;
5696;SDS011;2873;50.966;7.210;2023-04-16T02:00:04;40.47;;;20.83;;
5696;SDS011;2873;50.966;7.210;2023-04-16T02:02:33;43.85;;;21.27;;
5696;SDS011;2873;50.966;7.210;2023-04-16T02:04:59;40.63;;;21.37;;
5696;SDS011;2873;50.966;7.210;2023-04-16T02:07:25;35.87;;;20.60;;
5696;SDS011;2873;50.966;7.210;2023-04-16T02:09:51;38.70;;;20.50;;
5696;SDS011;2873;50.966;7.210;2023-04-16T02:12:17;35.90;;;19.90;;
5696;SDS011;2873;50.966;7.210;2023-04-16T02:14:43;32.13;;;19.20;;
5696;SDS011;2873;50.966;7.210;2023-04-16T02:17:08;37.50;;;20.35;;
5696;SDS011;2873;50.966;7.210;2023-04-16T02:19:34;35.30;;;19.50;;
5696;SDS011;2873;50.966;7.210;2023-04-16T02:22:00;36.08;;;20.10;;
5696;SDS011;2873;50.966;7.210;2023-04-16T02:24:25;33.77;;;18.40;;
5696;SDS011;2873;50.966;7.210;2023-04-16T02:26:52;33.65;;;19.23;;
5696;SDS011;2873;50.966;7.210;2023-04-16T02:29:17;33.90;;;19.30;;
5696;SDS011;2873;50.966;7.210;2023-04-16T02:31:43;33.25;;;19.38;;
5696;SDS011;2873;50.966;7.210;2023-04-16T02:34:09;36.73;;;19.80;;
5696;SDS011;2873;50.966;7.210;2023-04-16T02:36:34;31.58;;;17.42;;
5696;SDS011;2873;50.966;7.210;2023-04-16T02:39:00;32.83;;;18.93;;
5696;SDS011;2873;50.966;7.210;2023-04-16T02:41:26;31.38;;;18.58;;
5696;SDS011;2873;50.966;7.210;2023-04-16T02:43:51;31.80;;;17.37;;
5696;SDS011;2873;50.966;7.210;2023-04-16T02:46:17;35.80;;;18.63;;
5696;SDS011;2873;50.966;7.210;2023-04-16T02:48:43;31.27;;;18.30;;
5696;SDS011;2873;50.966;7.210;2023-04-16T02:51:08;29.80;;;17.92;;
5696;SDS011;2873;50.966;7.210;2023-04-16T02:53:34;34.17;;;17.40;;
5696;SDS011;2873;50.966;7.210;2023-04-16T02:55:59;36.27;;;18.13;;
5696;SDS011;2873;50.966;7.210;2023-04-16T02:58:25;31.77;;;18.40;;
5696;SDS011;2873;50.966;7.210;2023-04-16T03:00:51;32.15;;;18.42;;
5696;SDS011;2873;50.966;7.210;2023-04-16T03:03:18;37.92;;;20.17;;
5696;SDS011;2873;50.966;7.210;2023-04-16T03:05:44;30.70;;;17.70;;
5696;SDS011;2873;50.966;7.210;2023-04-16T03:08:11;34.75;;;18.02;;
5696;SDS011;2873;50.966;7.210;2023-04-16T03:10:37;35.63;;;18.50;;
5696;SDS011;2873;50.966;7.210;2023-04-16T03:13:02;41.03;;;18.88;;
5696;SDS011;2873;50.966;7.210;2023-04-16T03:15:28;37.60;;;20.73;;
5696;SDS011;2873;50.966;7.210;2023-04-16T03:17:55;43.10;;;22.50;;
5696;SDS011;2873;50.966;7.210;2023-04-16T03:20:20;44.53;;;23.33;;
5696;SDS011;2873;50.966;7.210;2023-04-16T03:22:46;49.70;;;25.20;;
5696;SDS011;2873;50.966;7.210;2023-04-16T03:25:12;55.07;;;26.40;;
5696;SDS011;2873;50.966;7.210;2023-04-16T03:27:38;60.75;;;27.98;;
5696;SDS011;2873;50.966;7.210;2023-04-16T03:30:04;57.60;;;27.17;;
5696;SDS011;2873;50.966;7.210;2023-04-16T03:32:37;57.53;;;26.92;;
5696;SDS011;2873;50.966;7.210;2023-04-16T03:35:04;50.47;;;25.17;;
5696;SDS011;2873;50.966;7.210;2023-04-16T03:37:30;50.60;;;25.73;;
5696;SDS011;2873;50.966;7.210;2023-04-16T03:39:56;49.00;;;24.70;;
5696;SDS011;2873;50.966;7.210;2023-04-16T03:42:22;58.80;;;28.25;;
5696;SDS011;2873;50.966;7.210;2023-04-16T03:44:47;60.80;;;29.30;;
5696;SDS011;2873;50.966;7.210;2023-04-16T03:47:13;66.60;;;29.83;;
5696;SDS011;2873;50.966;7.210;2023-04-16T03:49:39;63.90;;;30.20;;
5696;SDS011;2873;50.966;7.210;2023-04-16T03:52:04;74.05;;;31.20;;
5696;SDS011;2873;50.966;7.210;2023-04-16T03:54:30;72.73;;;32.50;;
5696;SDS011;2873;50.966;7.210;2023-04-16T03:56:56;64.65;;;31.13;;
5696;SDS011;2873;50.966;7.210;2023-04-16T03:59:21;64.17;;;31.27;;
5696;SDS011;2873;50.966;7.210;2023-04-16T04:01:47;66.00;;;30.20;;
5696;SDS011;2873;50.966;7.210;2023-04-16T04:04:12;68.43;;;32.50;;
5696;SDS011;2873;50.966;7.210;2023-04-16T04:06:39;69.45;;;30.85;;
5696;SDS011;2873;50.966;7.210;2023-04-16T04:09:04;63.63;;;29.30;;
5696;SDS011;2873;50.966;7.210;2023-04-16T04:11:30;61.40;;;28.10;;
5696;SDS011;2873;50.966;7.210;2023-04-16T04:13:56;55.30;;;26.63;;
5696;SDS011;2873;50.966;7.210;2023-04-16T04:16:21;52.80;;;26.80;;
5696;SDS011;2873;50.966;7.210;2023-04-16T04:18:47;50.60;;;25.80;;
5696;SDS011;2873;50.966;7.210;2023-04-16T04:21:12;49.20;;;24.87;;
5696;SDS011;2873;50.966;7.210;2023-04-16T04:23:38;50.03;;;24.60;;
5696;SDS011;2873;50.966;7.210;2023-04-16T04:26:05;49.60;;;24.30;;
5696;SDS011;2873;50.966;7.210;2023-04-16T04:28:31;50.73;;;25.30;;
5696;SDS011;2873;50.966;7.210;2023-04-16T04:30:57;47.83;;;24.37;;
5696;SDS011;2873;50.966;7.210;2023-04-16T04:33:27;48.65;;;24.50;;
5696;SDS011;2873;50.966;7.210;2023-04-16T04:35:53;48.83;;;23.93;;
5696;SDS011;2873;50.966;7.210;2023-04-16T04:38:18;50.90;;;26.10;;
5696;SDS011;2873;50.966;7.210;2023-04-16T04:40:46;49.53;;;25.70;;
5696;SDS011;2873;50.966;7.210;2023-04-16T04:43:12;46.10;;;24.50;;
5696;SDS011;2873;50.966;7.210;2023-04-16T04:45:37;50.95;;;25.85;;
5696;SDS011;2873;50.966;7.210;2023-04-16T04:48:03;51.67;;;25.80;;
5696;SDS011;2873;50.966;7.210;2023-04-16T04:50:28;51.83;;;25.25;;
5696;SDS011;2873;50.966;7.210;2023-04-16T04:52:54;51.70;;;26.40;;
5696;SDS011;2873;50.966;7.210;2023-04-16T04:55:20;50.40;;;25.88;;
5696;SDS011;2873;50.966;7.210;2023-04-16T04:57:45;46.50;;;24.67;;
5696;SDS011;2873;50.966;7.210;2023-04-16T05:00:11;49.57;;;24.67;;
5696;SDS011;2873;50.966;7.210;2023-04-16T05:02:36;51.70;;;25.35;;
5696;SDS011;2873;50.966;7.210;2023-04-16T05:05:02;52.92;;;26.42;;
5696;SDS011;2873;50.966;7.210;2023-04-16T05:07:29;51.05;;;25.30;;
5696;SDS011;2873;50.966;7.210;2023-04-16T05:09:54;46.63;;;24.58;;
5696;SDS011;2873;50.966;7.210;2023-04-16T05:12:20;51.90;;;25.97;;
5696;SDS011;2873;50.966;7.210;2023-04-16T05:14:46;53.17;;;24.45;;
5696;SDS011;2873;50.966;7.210;2023-04-16T05:17:11;49.53;;;24.23;;
5696;SDS011;2873;50.966;7.210;2023-04-16T05:19:37;51.30;;;24.42;;
5696;SDS011;2873;50.966;7.210;2023-04-16T05:22:02;46.30;;;24.13;;
5696;SDS011;2873;50.966;7.210;2023-04-16T05:24:28;52.10;;;25.50;;
5696;SDS011;2873;50.966;7.210;2023-04-16T05:26:54;48.00;;;23.60;;
5696;SDS011;2873;50.966;7.210;2023-04-16T05:29:21;46.97;;;23.33;;
5696;SDS011;2873;50.966;7.210;2023-04-16T05:31:46;45.00;;;23.30;;
5696;SDS011;2873;50.966;7.210;2023-04-16T05:34:12;48.88;;;23.65;;
5696;SDS011;2873;50.966;7.210;2023-04-16T05:36:38;54.53;;;24.50;;
5696;SDS011;2873;50.966;7.210;2023-04-16T05:39:03;53.05;;;24.85;;
5696;SDS011;2873;50.966;7.210;2023-04-16T05:41:30;56.40;;;24.80;;
5696;SDS011;2873;50.966;7.210;2023-04-16T05:43:55;49.40;;;24.48;;
5696;SDS011;2873;50.966;7.210;2023-04-16T05:46:21;51.57;;;25.37;;
5696;SDS011;2873;50.966;7.210;2023-04-16T05:48:46;50.97;;;24.60;;
5696;SDS011;2873;50.966;7.210;2023-04-16T05:51:12;49.72;;;24.80;;
5696;SDS011;2873;50.966;7.210;2023-04-16T05:53:37;52.67;;;25.77;;
5696;SDS011;2873;50.966;7.210;2023-04-16T05:56:03;54.55;;;24.25;;
5696;SDS011;2873;50.966;7.210;2023-04-16T05:58:29;54.37;;;24.40;;
5696;SDS011;2873;50.966;7.210;2023-04-16T06:00:54;55.63;;;26.20;;
5696;SDS011;2873;50.966;7.210;2023-04-16T06:03:20;59.87;;;25.37;;
5696;SDS011;2873;50.966;7.210;2023-04-16T06:05:46;54.92;;;24.38;;
5696;SDS011;2873;50.966;7.210;2023-04-16T06:08:11;52.83;;;25.40;;
5696;SDS011;2873;50.966;7.210;2023-04-16T06:10:37;56.38;;;27.10;;
5696;SDS011;2873;50.966;7.210;2023-04-16T06:13:03;59.83;;;26.50;;
5696;SDS011;2873;50.966;7.210;2023-04-16T06:15:28;55.47;;;25.60;;
5696;SDS011;2873;50.966;7.210;2023-04-16T06:17:54;54.80;;;25.67;;
5696;SDS011;2873;50.966;7.210;2023-04-16T06:20:20;61.50;;;26.10;;
5696;SDS011;2873;50.966;7.210;2023-04-16T06:22:45;63.10;;;28.10;;
5696;SDS011;2873;50.966;7.210;2023-04-16T06:25:11;57.42;;;27.00;;
5696;SDS011;2873;50.966;7.210;2023-04-16T06:27:36;65.53;;;26.63;;
5696;SDS011;2873;50.966;7.210;2023-04-16T06:30:02;56.38;;;25.73;;
5696;SDS011;2873;50.966;7.210;2023-04-16T06:32:28;68.80;;;26.70;;
5696;SDS011;2873;50.966;7.210;2023-04-16T06:34:54;57.35;;;26.88;;
5696;SDS011;2873;50.966;7.210;2023-04-16T06:37:20;64.45;;;27.67;;
5696;SDS011;2873;50.966;7.210;2023-04-16T06:39:45;60.38;;;27.40;;
5696;SDS011;2873;50.966;7.210;2023-04-16T06:42:13;60.05;;;27.67;;
5696;SDS011;2873;50.966;7.210;2023-04-16T06:44:38;59.57;;;26.97;;
5696;SDS011;2873;50.966;7.210;2023-04-16T06:47:04;59.83;;;27.17;;
5696;SDS011;2873;50.966;7.210;2023-04-16T06:49:29;68.60;;;28.50;;
5696;SDS011;2873;50.966;7.210;2023-04-16T06:51:55;61.67;;;28.57;;
5696;SDS011;2873;50.966;7.210;2023-04-16T06:54:21;64.63;;;27.92;;
5696;SDS011;2873;50.966;7.210;2023-04-16T06:56:47;65.53;;;28.10;;
5696;SDS011;2873;50.966;7.210;2023-04-16T06:59:12;63.10;;;28.90;;
5696;SDS011;2873;50.966;7.210;2023-04-16T07:01:38;63.92;;;28.80;;
5696;SDS011;2873;50.966;7.210;2023-04-16T07:07:26;65.05;;;27.42;;
5696;SDS011;2873;50.966;7.210;2023-04-16T07:09:51;65.07;;;29.57;;
5696;SDS011;2873;50.966;7.210;2023-04-16T07:12:17;62.33;;;27.75;;
5696;SDS011;2873;50.966;7.210;2023-04-16T07:14:43;62.95;;;29.45;;
5696;SDS011;2873;50.966;7.210;2023-04-16T07:17:09;64.03;;;29.80;;
5696;SDS011;2873;50.966;7.210;2023-04-16T07:19:34;67.87;;;30.43;;
5696;SDS011;2873;50.966;7.210;2023-04-16T07:22:01;73.13;;;31.88;;
5696;SDS011;2873;50.966;7.210;2023-04-16T07:24:26;68.55;;;30.30;;
5696;SDS011;2873;50.966;7.210;2023-04-16T07:26:52;63.23;;;31.47;;
5696;SDS011;2873;50.966;7.210;2023-04-16T07:29:17;67.40;;;29.55;;
5696;SDS011;2873;50.966;7.210;2023-04-16T07:31:43;70.60;;;32.77;;
5696;SDS011;2873;50.966;7.210;2023-04-16T07:34:09;71.63;;;32.70;;
5696;SDS011;2873;50.966;7.210;2023-04-16T07:36:35;68.93;;;32.42;;
5696;SDS011;2873;50.966;7.210;2023-04-16T07:42:07;65.93;;;34.05;;
5696;SDS011;2873;50.966;7.210;2023-04-16T07:44:32;64.15;;;33.65;;
5696;SDS011;2873;50.966;7.210;2023-04-16T07:46:58;66.40;;;33.27;;
5696;SDS011;2873;50.966;7.210;2023-04-16T07:49:23;64.27;;;32.90;;
5696;SDS011;2873;50.966;7.210;2023-04-16T07:51:49;61.50;;;32.25;;
5696;SDS011;2873;50.966;7.210;2023-04-16T07:54:15;66.27;;;33.00;;
5696;SDS011;2873;50.966;7.210;2023-04-16T07:56:40;58.38;;;31.23;;
5696;SDS011;2873;50.966;7.210;2023-04-16T07:59:06;55.10;;;30.57;;
5696;SDS011;2873;50.966;7.210;2023-04-16T08:01:31;57.97;;;32.78;;
5696;SDS011;2873;50.966;7.210;2023-04-16T08:03:57;64.33;;;30.77;;
5696;SDS011;2873;50.966;7.210;2023-04-16T08:06:23;66.97;;;33.42;;
5696;SDS011;2873;50.966;7.210;2023-04-16T08:08:50;61.78;;;31.75;;
5696;SDS011;2873;50.966;7.210;2023-04-16T08:11:16;57.07;;;30.83;;
5696;SDS011;2873;50.966;7.210;2023-04-16T08:13:41;60.60;;;29.95;;
5696;SDS011;2873;50.966;7.210;2023-04-16T08:16:07;59.30;;;30.17;;
5696;SDS011;2873;50.966;7.210;2023-04-16T08:18:32;59.90;;;32.15;;
5696;SDS011;2873;50.966;7.210;2023-04-16T08:20:58;55.87;;;31.07;;
5696;SDS011;2873;50.966;7.210;2023-04-16T08:23:23;54.50;;;30.40;;
5696;SDS011;2873;50.966;7.210;2023-04-16T08:25:49;54.60;;;30.80;;
5696;SDS011;2873;50.966;7.210;2023-04-16T08:28:14;53.93;;;30.50;;
5696;SDS011;2873;50.966;7.210;2023-04-16T08:30:40;61.47;;;31.20;;
5696;SDS011;2873;50.966;7.210;2023-04-16T08:33:05;55.70;;;29.92;;
5696;SDS011;2873;50.966;7.210;2023-04-16T08:35:31;58.47;;;31.40;;
5696;SDS011;2873;50.966;7.210;2023-04-16T08:37:57;53.70;;;30.30;;
5696;SDS011;2873;50.966;7.210;2023-04-16T08:40:24;52.75;;;30.63;;
5696;SDS011;2873;50.966;7.210;2023-04-16T08:42:52;54.67;;;29.40;;
5696;SDS011;2873;50.966;7.210;2023-04-16T08:45:20;52.70;;;29.48;;
5696;SDS011;2873;50.966;7.210;2023-04-16T08:47:46;49.47;;;29.52;;
5696;SDS011;2873;50.966;7.210;2023-04-16T08:50:13;47.95;;;27.80;;
5696;SDS011;2873;50.966;7.210;2023-04-16T08:52:55;51.97;;;28.23;;
5696;SDS011;2873;50.966;7.210;2023-04-16T08:55:29;46.00;;;27.93;;
5696;SDS011;2873;50.966;7.210;2023-04-16T08:58:21;53.65;;;28.55;;
5696;SDS011;2873;50.966;7.210;2023-04-16T09:00:48;45.13;;;27.00;;
5696;SDS011;2873;50.966;7.210;2023-04-16T09:03:14;45.53;;;26.15;;
5696;SDS011;2873;50.966;7.210;2023-04-16T09:05:45;44.25;;;26.70;;
5696;SDS011;2873;50.966;7.210;2023-04-16T09:08:12;43.35;;;25.55;;
5696;SDS011;2873;50.966;7.210;2023-04-16T09:10:37;41.90;;;26.05;;
5696;SDS011;2873;50.966;7.210;2023-04-16T09:13:03;44.13;;;25.47;;
5696;SDS011;2873;50.966;7.210;2023-04-16T09:15:28;39.35;;;25.17;;
5696;SDS011;2873;50.966;7.210;2023-04-16T09:17:54;41.30;;;24.80;;
5696;SDS011;2873;50.966;7.210;2023-04-16T09:20:21;42.83;;;25.70;;
5696;SDS011;2873;50.966;7.210;2023-04-16T09:22:47;48.67;;;27.27;;
5696;SDS011;2873;50.966;7.210;2023-04-16T09:25:13;40.43;;;26.23;;
5696;SDS011;2873;50.966;7.210;2023-04-16T09:27:38;39.92;;;25.40;;
5696;SDS011;2873;50.966;7.210;2023-04-16T09:32:53;40.20;;;25.27;;
5696;SDS011;2873;50.966;7.210;2023-04-16T09:35:43;40.72;;;24.13;;
5696;SDS011;2873;50.966;7.210;2023-04-16T09:38:18;36.20;;;23.40;;
5696;SDS011;2873;50.966;7.210;2023-04-16T09:40:45;40.38;;;23.55;;
5696;SDS011;2873;50.966;7.210;2023-04-16T09:43:15;40.97;;;24.77;;
5696;SDS011;2873;50.966;7.210;2023-04-16T09:45:48;36.97;;;23.45;;
5696;SDS011;2873;50.966;7.210;2023-04-16T09:48:15;36.38;;;23.10;;
5696;SDS011;2873;50.966;7.210;2023-04-16T09:50:51;41.60;;;24.58;;
5696;SDS011;2873;50.966;7.210;2023-04-16T09:53:29;36.90;;;22.97;;
5696;SDS011;2873;50.966;7.210;2023-04-16T09:55:56;35.20;;;23.08;;
5696;SDS011;2873;50.966;7.210;2023-04-16T09:58:22;37.65;;;25.00;;
5696;SDS011;2873;50.966;7.210;2023-04-16T10:00:50;34.47;;;22.58;;
5696;SDS011;2873;50.966;7.210;2023-04-16T10:03:41;36.35;;;24.00;;
5696;SDS011;2873;50.966;7.210;2023-04-16T10:06:13;39.72;;;23.38;;
5696;SDS011;2873;50.966;7.210;2023-04-16T10:08:50;35.53;;;23.88;;
5696;SDS011;2873;50.966;7.210;2023-04-16T10:11:22;36.20;;;23.83;;
5696;SDS011;2873;50.966;7.210;2023-04-16T10:13:49;35.33;;;23.92;;
5696;SDS011;2873;50.966;7.210;2023-04-16T10:16:15;39.47;;;23.25;;
5696;SDS011;2873;50.966;7.210;2023-04-16T10:18:42;38.90;;;24.38;;
5696;SDS011;2873;50.966;7.210;2023-04-16T10:21:09;36.10;;;24.10;;
5696;SDS011;2873;50.966;7.210;2023-04-16T10:23:39;38.38;;;24.45;;
5696;SDS011;2873;50.966;7.210;2023-04-16T10:26:06;34.63;;;22.90;;
5696;SDS011;2873;50.966;7.210;2023-04-16T10:28:31;37.10;;;24.00;;
5696;SDS011;2873;50.966;7.210;2023-04-16T10:30:59;37.25;;;23.42;;
5696;SDS011;2873;50.966;7.210;2023-04-16T10:33:27;32.60;;;22.65;;
5696;SDS011;2873;50.966;7.210;2023-04-16T10:36:08;34.30;;;23.10;;
5696;SDS011;2873;50.966;7.210;2023-04-16T10:38:39;33.65;;;22.63;;
5696;SDS011;2873;50.966;7.210;2023-04-16T10:41:08;31.25;;;22.05;;
5696;SDS011;2873;50.966;7.210;2023-04-16T10:43:44;33.80;;;21.75;;
5696;SDS011;2873;50.966;7.210;2023-04-16T10:48:44;202.55;;;125.18;;
5696;SDS011;2873;50.966;7.210;2023-04-16T10:53:48;33.80;;;23.70;;
5696;SDS011;2873;50.966;7.210;2023-04-16T10:56:21;33.63;;;23.23;;
5696;SDS011;2873;50.966;7.210;2023-04-16T10:58:47;32.97;;;22.87;;
5696;SDS011;2873;50.966;7.210;2023-04-16T11:10:37;47.80;;;30.70;;
5696;SDS011;2873;50.966;7.210;2023-04-16T11:13:03;31.50;;;22.90;;
5696;SDS011;2873;50.966;7.210;2023-04-16T11:15:30;35.33;;;22.65;;
5696;SDS011;2873;50.966;7.210;2023-04-16T11:17:57;27.45;;;18.92;;
5696;SDS011;2873;50.966;7.210;2023-04-16T11:20:24;108.30;;;32.33;;
5696;SDS011;2873;50.966;7.210;2023-04-16T11:22:51;29.05;;;22.13;;
5696;SDS011;2873;50.966;7.210;2023-04-16T11:25:25;26.00;;;17.60;;
5696;SDS011;2873;50.966;7.210;2023-04-16T11:27:53;26.05;;;18.00;;
5696;SDS011;2873;50.966;7.210;2023-04-16T11:30:29;27.02;;;18.05;;
5696;SDS011;2873;50.966;7.210;2023-04-16T11:32:57;37.53;;;31.77;;
5696;SDS011;2873;50.966;7.210;2023-04-16T11:35:23;38.27;;;27.90;;
5696;SDS011;2873;50.966;7.210;2023-04-16T11:37:49;27.27;;;19.75;;
5696;SDS011;2873;50.966;7.210;2023-04-16T11:40:19;25.67;;;18.08;;
5696;SDS011;2873;50.966;7.210;2023-04-16T11:42:45;29.53;;;20.50;;
5696;SDS011;2873;50.966;7.210;2023-04-16T11:45:10;28.77;;;23.20;;
5696;SDS011;2873;50.966;7.210;2023-04-16T11:47:43;34.28;;;28.40;;
5696;SDS011;2873;50.966;7.210;2023-04-16T11:52:52;22.77;;;16.30;;
5696;SDS011;2873;50.966;7.210;2023-04-16T11:55:20;23.25;;;16.80;;
5696;SDS011;2873;50.966;7.210;2023-04-16T11:57:46;21.25;;;15.60;;
5696;SDS011;2873;50.966;7.210;2023-04-16T12:00:12;22.20;;;16.30;;
5696;SDS011;2873;50.966;7.210;2023-04-16T12:02:40;21.10;;;16.03;;
5696;SDS011;2873;50.966;7.210;2023-04-16T12:07:51;21.13;;;16.25;;
5696;SDS011;2873;50.966;7.210;2023-04-16T12:10:17;23.00;;;15.80;;
5696;SDS011;2873;50.966;7.210;2023-04-16T12:12:43;21.08;;;16.35;;
5696;SDS011;2873;50.966;7.210;2023-04-16T12:15:08;20.90;;;15.87;;
5696;SDS011;2873;50.966;7.210;2023-04-16T12:17:35;21.83;;;16.35;;
5696;SDS011;2873;50.966;7.210;2023-04-16T12:20:02;22.65;;;15.50;;
5696;SDS011;2873;50.966;7.210;2023-04-16T12:22:33;18.48;;;15.23;;
5696;SDS011;2873;50.966;7.210;2023-04-16T12:25:00;22.25;;;16.90;;
5696;SDS011;2873;50.966;7.210;2023-04-16T12:30:16;20.73;;;15.10;;
5696;SDS011;2873;50.966;7.210;2023-04-16T12:32:44;19.98;;;15.52;;
5696;SDS011;2873;50.966;7.210;2023-04-16T12:35:11;23.30;;;16.30;;
5696;SDS011;2873;50.966;7.210;2023-04-16T12:37:37;20.50;;;15.52;;
5696;SDS011;2873;50.966;7.210;2023-04-16T12:40:04;19.70;;;15.00;;
5696;SDS011;2873;50.966;7.210;2023-04-16T12:42:30;20.00;;;15.10;;
5696;SDS011;2873;50.966;7.210;2023-04-16T12:45:03;22.33;;;15.63;;
5696;SDS011;2873;50.966;7.210;2023-04-16T12:47:30;19.55;;;15.35;;
5696;SDS011;2873;50.966;7.210;2023-04-16T12:49:56;17.13;;;14.30;;
5696;SDS011;2873;50.966;7.210;2023-04-16T12:52:22;18.92;;;15.00;;
5696;SDS011;2873;50.966;7.210;2023-04-16T12:54:48;19.50;;;14.80;;
5696;SDS011;2873;50.966;7.210;2023-04-16T12:57:14;21.65;;;15.55;;
5696;SDS011;2873;50.966;7.210;2023-04-16T12:59:40;19.45;;;15.35;;
5696;SDS011;2873;50.966;7.210;2023-04-16T13:02:06;21.77;;;15.60;;
5696;SDS011;2873;50.966;7.210;2023-04-16T13:04:31;18.70;;;14.30;;
5696;SDS011;2873;50.966;7.210;2023-04-16T13:06:57;17.47;;;13.80;;
5696;SDS011;2873;50.966;7.210;2023-04-16T13:09:23;17.38;;;13.73;;
5696;SDS011;2873;50.966;7.210;2023-04-16T13:11:49;19.85;;;14.88;;
5696;SDS011;2873;50.966;7.210;2023-04-16T13:14:14;18.37;;;14.80;;
5696;SDS011;2873;50.966;7.210;2023-04-16T13:16:40;19.70;;;15.00;;
5696;SDS011;2873;50.966;7.210;2023-04-16T13:19:05;16.98;;;13.75;;
5696;SDS011;2873;50.966;7.210;2023-04-16T13:21:31;16.20;;;13.13;;
5696;SDS011;2873;50.966;7.210;2023-04-16T13:23:58;19.45;;;13.40;;
5696;SDS011;2873;50.966;7.210;2023-04-16T13:26:23;17.70;;;12.70;;
5696;SDS011;2873;50.966;7.210;2023-04-16T13:28:50;17.33;;;13.70;;
5696;SDS011;2873;50.966;7.210;2023-04-16T13:31:15;15.33;;;12.60;;
5696;SDS011;2873;50.966;7.210;2023-04-16T13:33:43;18.77;;;13.00;;
5696;SDS011;2873;50.966;7.210;2023-04-16T13:36:09;17.25;;;13.32;;
5696;SDS011;2873;50.966;7.210;2023-04-16T13:38:35;18.77;;;12.53;;
5696;SDS011;2873;50.966;7.210;2023-04-16T13:41:00;17.25;;;12.30;;
5696;SDS011;2873;50.966;7.210;2023-04-16T13:43:26;16.90;;;13.00;;
5696;SDS011;2873;50.966;7.210;2023-04-16T13:45:51;15.53;;;12.90;;
5696;SDS011;2873;50.966;7.210;2023-04-16T13:48:17;14.32;;;12.23;;
5696;SDS011;2873;50.966;7.210;2023-04-16T13:50:43;19.40;;;13.13;;
5696;SDS011;2873;50.966;7.210;2023-04-16T13:53:08;15.70;;;12.60;;
5696;SDS011;2873;50.966;7.210;2023-04-16T13:55:34;13.98;;;12.48;;
5696;SDS011;2873;50.966;7.210;2023-04-16T13:57:59;15.97;;;12.73;;
5696;SDS011;2873;50.966;7.210;2023-04-16T14:00:25;17.70;;;12.90;;
5696;SDS011;2873;50.966;7.210;2023-04-16T14:02:51;16.83;;;13.30;;
5696;SDS011;2873;50.966;7.210;2023-04-16T14:05:17;17.27;;;14.45;;
5696;SDS011;2873;50.966;7.210;2023-04-16T14:07:43;15.40;;;12.60;;
5696;SDS011;2873;50.966;7.210;2023-04-16T14:10:09;16.55;;;13.20;;
5696;SDS011;2873;50.966;7.210;2023-04-16T14:12:35;20.40;;;14.60;;
5696;SDS011;2873;50.966;7.210;2023-04-16T14:15:02;16.98;;;14.15;;
5696;SDS011;2873;50.966;7.210;2023-04-16T14:17:33;17.95;;;14.90;;
5696;SDS011;2873;50.966;7.210;2023-04-16T14:19:59;20.25;;;14.07;;
5696;SDS011;2873;50.966;7.210;2023-04-16T14:22:25;18.40;;;14.63;;
5696;SDS011;2873;50.966;7.210;2023-04-16T14:24:50;16.45;;;14.07;;
5696;SDS011;2873;50.966;7.210;2023-04-16T14:27:16;20.40;;;14.80;;
5696;SDS011;2873;50.966;7.210;2023-04-16T14:29:41;21.73;;;15.50;;
5696;SDS011;2873;50.966;7.210;2023-04-16T14:32:23;19.63;;;15.13;;
5696;SDS011;2873;50.966;7.210;2023-04-16T14:34:50;19.95;;;15.38;;
5696;SDS011;2873;50.966;7.210;2023-04-16T14:37:16;19.07;;;14.80;;
5696;SDS011;2873;50.966;7.210;2023-04-16T14:39:41;19.92;;;14.82;;
5696;SDS011;2873;50.966;7.210;2023-04-16T14:42:07;18.75;;;15.43;;
5696;SDS011;2873;50.966;7.210;2023-04-16T14:44:33;19.80;;;15.10;;
5696;SDS011;2873;50.966;7.210;2023-04-16T14:46:58;18.58;;;15.25;;
5696;SDS011;2873;50.966;7.210;2023-04-16T14:49:24;18.40;;;14.33;;
5696;SDS011;2873;50.966;7.210;2023-04-16T14:51:50;17.15;;;14.75;;
5696;SDS011;2873;50.966;7.210;2023-04-16T14:54:16;18.95;;;14.65;;
5696;SDS011;2873;50.966;7.210;2023-04-16T14:56:43;19.80;;;16.10;;
5696;SDS011;2873;50.966;7.210;2023-04-16T14:59:09;19.77;;;15.30;;
5696;SDS011;2873;50.966;7.210;2023-04-16T15:01:35;20.05;;;15.77;;
5696;SDS011;2873;50.966;7.210;2023-04-16T15:04:03;19.05;;;14.32;;
5696;SDS011;2873;50.966;7.210;2023-04-16T15:06:29;21.13;;;15.25;;
5696;SDS011;2873;50.966;7.210;2023-04-16T15:08:56;18.08;;;14.60;;
5696;SDS011;2873;50.966;7.210;2023-04-16T15:11:21;19.80;;;14.87;;
5696;SDS011;2873;50.966;7.210;2023-04-16T15:13:47;19.90;;;14.90;;
5696;SDS011;2873;50.966;7.210;2023-04-16T15:16:12;19.07;;;15.33;;